»·PEaware :: N123AB KLGB-KSNA

N123AB :: KLGB-KSNA

FLIGHT INFORMATION

Flight Status: Arrived
Operator: Privately registered:
United States
More flights under this callsign
Pilot: Brad W. (6375)
Aircraft: Diamond DA-40
(DA40)
More flights by this aircraft type
Origin: KLGB Long Beach
United States
Destination: KSNA John Wayne-Orange Co
United States
More flights between these airports :: More routes between these airports
Route: SLI
File this flight plan on PilotEdge
Remarks: Request practice approach (Note - in IMC)
Altitude:
(Current/Filed)
3,000ft
Speed:
(Current/Filed)
140kts
Departed: 05-Mar-20 04:43 PM
Arrived: 05-Mar-20 05:14 PM
Distance/Time
Traveled:
16nm/0:31
Distance/Time
To Go:
Arrived

Flight Plot

Page will automatically refresh every two minutes.


Map Options




Map Legend


Flown Route
Filed Route
Departure Airport
Arrival Airport
Navaid (VOR, NDB)
Fix

Horizontal Profiles

Position Reports

Time Latitude Longitude Heading Altitude Ground
Speed
05-Mar-20 16:17 33.812894 -118.152488 60 63ft 0kts
05-Mar-20 16:18 33.812895 -118.152488 60 63ft 0kts
05-Mar-20 16:19 33.812895 -118.152487 60 63ft 0kts
05-Mar-20 16:20 33.812895 -118.152487 60 63ft 0kts
05-Mar-20 16:21 33.812895 -118.152487 60 63ft 0kts
05-Mar-20 16:22 33.812895 -118.152486 60 63ft 0kts
05-Mar-20 16:23 33.812895 -118.152486 60 63ft 0kts
05-Mar-20 16:24 33.812896 -118.152485 60 63ft 0kts
05-Mar-20 16:25 33.812896 -118.152485 60 63ft 0kts
05-Mar-20 16:26 33.812896 -118.152485 60 63ft 0kts
05-Mar-20 16:27 33.812896 -118.152484 60 63ft 0kts
05-Mar-20 16:28 33.812896 -118.152484 60 63ft 0kts
05-Mar-20 16:29 33.812897 -118.152483 60 63ft 0kts
05-Mar-20 16:30 33.812897 -118.152483 60 63ft 0kts
05-Mar-20 16:31 33.812897 -118.152483 60 63ft 0kts
05-Mar-20 16:32 33.813023 -118.151860 87 63ft 10kts
05-Mar-20 16:33 33.812873 -118.149442 78 63ft 5kts
05-Mar-20 16:34 33.812540 -118.148959 169 63ft 0kts
05-Mar-20 16:35 33.812506 -118.148952 171 63ft 4kts
05-Mar-20 16:36 33.811425 -118.146628 92 63ft 12kts
05-Mar-20 16:37 33.807567 -118.140671 136 63ft 20kts
05-Mar-20 16:38 33.806763 -118.139423 69 63ft 0kts
05-Mar-20 16:39 33.806763 -118.139422 69 63ft 0kts
05-Mar-20 16:40 33.806763 -118.139422 69 63ft 0kts
05-Mar-20 16:41 33.807217 -118.138830 10 63ft 13kts
05-Mar-20 16:42 33.817996 -118.152836 308 823ft 77kts
05-Mar-20 16:43 33.823807 -118.179446 283 1950ft 91kts
05-Mar-20 16:44 33.829302 -118.207570 282 3024ft 99kts
05-Mar-20 16:45 33.835356 -118.248022 257 3008ft 132kts
05-Mar-20 16:46 33.824295 -118.290375 251 3003ft 133kts
05-Mar-20 16:47 33.808404 -118.328709 192 3002ft 132kts
05-Mar-20 16:48 33.771571 -118.331046 181 3003ft 133kts
05-Mar-20 16:49 33.734417 -118.332651 181 3003ft 133kts
05-Mar-20 16:50 33.697416 -118.333581 167 2996ft 133kts
05-Mar-20 16:51 33.699499 -118.296327 61 3005ft 133kts
05-Mar-20 16:52 33.716929 -118.256918 61 3003ft 133kts
05-Mar-20 16:53 33.734312 -118.217619 61 3003ft 133kts
05-Mar-20 16:54 33.751750 -118.178194 61 3003ft 133kts
05-Mar-20 16:55 33.769126 -118.138907 61 3003ft 133kts
05-Mar-20 16:56 33.786510 -118.099604 61 3003ft 133kts
05-Mar-20 16:57 33.803896 -118.060293 61 3003ft 133kts
05-Mar-20 16:58 33.816809 -118.018521 71 3003ft 133kts
05-Mar-20 16:59 33.828251 -117.976183 71 3003ft 133kts
05-Mar-20 17:00 33.839739 -117.933690 71 3003ft 133kts
05-Mar-20 17:01 33.851190 -117.891342 71 3003ft 133kts
05-Mar-20 17:02 33.862652 -117.848963 71 3003ft 133kts
05-Mar-20 17:03 33.874154 -117.806445 71 3003ft 133kts
05-Mar-20 17:04 33.878693 -117.764763 142 3004ft 131kts
05-Mar-20 17:05 33.843862 -117.765548 193 3024ft 124kts
05-Mar-20 17:06 33.816422 -117.779371 216 2877ft 96kts
05-Mar-20 17:07 33.793015 -117.793492 202 2635ft 95kts
05-Mar-20 17:08 33.769256 -117.809853 202 2054ft 100kts
05-Mar-20 17:09 33.745321 -117.825292 214 1499ft 94kts
05-Mar-20 17:10 33.721850 -117.839548 209 1157ft 96kts
05-Mar-20 17:11 33.697677 -117.855194 208 700ft 89kts
05-Mar-20 17:12 33.679460 -117.866492 213 59ft 43kts
05-Mar-20 17:13 33.675808 -117.869798 289 59ft 0kts

Navigation Log

Ident Type
Flight plan parsing failed, navigation log unavailable